Terminal Aerodrome Forecast
Issued by NWS Grand Forks, ND

Home | Current Version | Previous Version | Text Only | Print | Product List | Glossary On
Versions: 1 2 3 4 5 6 7 8 9 10 11 12 13 14 15 16
000
FTUS43 KFGF 270224 AAA
TAFFAR
TAF AMD
KFAR 270224Z 2702/2724 VRB05KT 3SM TSRA BKN040CB
     FM270430 03006KT P6SM BKN050
     FM271900 01009KT P6SM SCT250=

USA.gov is the U.S. government's official web portal to all federal, state and local government web resources and services.